createdAt,value
2023-01-11T00:01:11.626Z,100181.16
2023-01-11T00:03:39.540Z,100178.84
2023-01-11T00:06:10.630Z,100178.25
2023-01-11T00:08:41.363Z,100176.19
2023-01-11T00:11:15.499Z,100177.41
2023-01-11T00:13:46.069Z,100175.53
2023-01-11T00:16:16.345Z,100181.94
2023-01-11T00:18:47.180Z,100179.47
2023-01-11T00:21:15.780Z,100176.78
2023-01-11T00:23:43.468Z,100175.75
2023-01-11T00:26:13.986Z,100166.06
2023-01-11T00:28:41.631Z,100176.16
2023-01-11T00:31:12.174Z,100172.44
2023-01-11T00:33:39.761Z,100177.62
2023-01-11T00:36:07.745Z,100181.34
2023-01-11T00:38:54.002Z,100184.84
2023-01-11T00:41:41.311Z,100184.22
2023-01-11T00:44:30.418Z,100183.59
2023-01-11T00:47:16.127Z,100179.87
2023-01-11T00:49:44.347Z,100192.28
2023-01-11T00:52:12.102Z,100199.50
2023-01-11T00:54:41.004Z,100188.56
2023-01-11T00:57:12.498Z,100185.81
2023-01-11T00:59:40.754Z,100197.63
2023-01-11T01:02:10.069Z,100203.41
2023-01-11T01:04:37.811Z,100200.31
2023-01-11T01:07:05.896Z,100210.37
2023-01-11T01:09:33.907Z,100210.37
2023-01-11T01:12:02.923Z,100216.59
2023-01-11T01:14:30.352Z,100218.44
2023-01-11T01:17:02.751Z,100216.97
2023-01-11T01:19:35.947Z,100228.75
2023-01-11T01:22:03.824Z,100214.50
2023-01-11T01:24:32.549Z,100213.25
2023-01-11T01:27:00.132Z,100206.25
2023-01-11T01:29:29.298Z,100208.75
2023-01-11T01:31:59.283Z,100206.69
2023-01-11T01:34:26.953Z,100214.31
2023-01-11T01:36:59.616Z,100219.28
2023-01-11T01:39:30.398Z,100213.28
2023-01-11T01:42:00.728Z,100215.75
2023-01-11T01:45:07.315Z,100212.84
2023-01-11T01:47:46.246Z,100235.97
2023-01-11T01:50:37.142Z,100228.94
2023-01-11T01:53:19.947Z,100228.53
2023-01-11T01:55:54.463Z,100229.34
2023-01-11T01:58:28.772Z,100225.22
2023-01-11T02:01:18.573Z,100228.31
2023-01-11T02:03:49.600Z,100220.47
2023-01-11T02:06:17.345Z,100224.00
2023-01-11T02:08:49.344Z,100226.06
2023-01-11T02:11:35.699Z,100224.19
2023-01-11T02:14:15.944Z,100223.78
2023-01-11T02:16:43.525Z,100230.81
2023-01-11T02:19:23.406Z,100226.87
2023-01-11T02:22:18.235Z,100234.53
2023-01-11T02:25:16.721Z,100249.19
2023-01-11T02:28:02.738Z,100248.34
2023-01-11T02:30:45.558Z,100230.81
2023-01-11T02:33:18.869Z,100243.81
2023-01-11T02:35:49.175Z,100248.75
2023-01-11T02:38:29.269Z,100244.00
2023-01-11T02:41:53.592Z,100252.44
2023-01-11T02:44:56.477Z,100251.78
2023-01-11T02:47:39.541Z,100244.34
2023-01-11T02:50:11.290Z,100258.59
2023-01-11T02:53:04.376Z,100254.88
2023-01-11T02:55:39.888Z,100252.44
2023-01-11T02:58:12.123Z,100242.97
2023-01-11T03:00:42.018Z,100249.38
2023-01-11T03:03:24.933Z,100253.91
2023-01-11T03:06:12.530Z,100257.56
2023-01-11T03:08:58.692Z,100268.47
2023-01-11T03:11:47.033Z,100279.62
2023-01-11T03:14:42.692Z,100282.06
2023-01-11T03:17:28.300Z,100291.34
2023-01-11T03:20:19.688Z,100289.69
2023-01-11T03:22:47.198Z,100292.34
2023-01-11T03:25:20.672Z,100293.81
2023-01-11T03:27:55.757Z,100306.78
2023-01-11T03:30:39.716Z,100311.31
2023-01-11T03:33:14.562Z,100324.72
2023-01-11T03:35:52.315Z,100327.22
2023-01-11T03:38:37.710Z,100335.00
2023-01-11T03:41:26.382Z,100341.72
2023-01-11T03:43:59.492Z,100342.06
2023-01-11T03:46:42.328Z,100352.66
2023-01-11T03:49:15.962Z,100330.31
2023-01-11T03:51:46.073Z,100333.03
2023-01-11T03:54:19.001Z,100325.53
2023-01-11T03:57:00.352Z,100315.72
2023-01-11T03:59:31.307Z,100308.53
2023-01-11T04:01:59.198Z,100294.44
2023-01-11T04:04:26.933Z,100286.59
2023-01-11T04:06:55.680Z,100282.31
2023-01-11T04:09:23.281Z,100271.22
2023-01-11T04:11:50.849Z,100283.31
2023-01-11T04:14:18.439Z,100288.37
2023-01-11T04:16:48.391Z,100289.91
2023-01-11T04:19:15.973Z,100288.06
2023-01-11T04:21:45.911Z,100286.84
2023-01-11T04:24:13.980Z,100301.13
2023-01-11T04:26:41.615Z,100290.38
2023-01-11T04:29:10.440Z,100295.56
2023-01-11T04:31:38.075Z,100302.13
2023-01-11T04:34:05.700Z,100312.56
2023-01-11T04:36:33.765Z,100306.81
2023-01-11T04:39:02.114Z,100298.53
2023-01-11T04:41:47.407Z,100291.87
2023-01-11T04:44:17.282Z,100291.69
2023-01-11T04:46:44.856Z,100292.72
2023-01-11T04:49:12.698Z,100301.84
2023-01-11T04:51:40.342Z,100309.88
2023-01-11T04:54:08.040Z,100314.44
2023-01-11T04:56:36.332Z,100326.94
2023-01-11T04:59:03.918Z,100325.88
2023-01-11T05:01:33.689Z,100321.34
2023-01-11T05:04:03.470Z,100333.09
2023-01-11T05:06:31.095Z,100315.75
2023-01-11T05:08:58.886Z,100324.41
2023-01-11T05:11:28.744Z,100331.00
2023-01-11T05:13:59.893Z,100327.88
2023-01-11T05:16:27.606Z,100332.19
2023-01-11T05:18:59.235Z,100341.16
2023-01-11T05:21:31.291Z,100323.44
2023-01-11T05:24:03.461Z,100306.72
2023-01-11T05:26:34.816Z,100317.16
2023-01-11T05:29:08.039Z,100323.28
2023-01-11T05:31:38.327Z,100340.53
2023-01-11T05:34:07.657Z,100358.09
2023-01-11T05:36:36.368Z,100350.56
2023-01-11T05:39:05.764Z,100344.88
2023-01-11T05:41:34.035Z,100342.28
2023-01-11T05:44:19.152Z,100334.94
2023-01-11T05:46:46.749Z,100328.25
2023-01-11T05:49:15.431Z,100337.16
2023-01-11T05:51:44.648Z,100329.25
2023-01-11T05:54:15.232Z,100330.22
2023-01-11T05:56:44.207Z,100328.47
2023-01-11T05:59:14.314Z,100327.69
2023-01-11T06:01:42.148Z,100327.22
2023-01-11T06:04:09.803Z,100327.94
2023-01-11T06:06:37.500Z,100316.78
2023-01-11T06:09:05.121Z,100311.72
2023-01-11T06:11:38.091Z,100311.19
2023-01-11T06:14:05.701Z,100317.28
2023-01-11T06:16:35.688Z,100318.50
2023-01-11T06:19:03.505Z,100323.66
2023-01-11T06:21:31.077Z,100324.31
2023-01-11T06:23:58.643Z,100324.75
2023-01-11T06:26:28.366Z,100336.28
2023-01-11T06:28:55.932Z,100339.22
2023-01-11T06:31:23.655Z,100321.13
2023-01-11T06:33:51.516Z,100321.97
2023-01-11T06:36:21.485Z,100329.91
2023-01-11T06:38:49.095Z,100322.53
2023-01-11T06:41:16.729Z,100323.78
2023-01-11T06:43:44.342Z,100329.16
2023-01-11T06:46:18.990Z,100330.06
2023-01-11T06:48:46.719Z,100333.81
2023-01-11T06:51:16.280Z,100348.31
2023-01-11T06:53:45.927Z,100362.72
2023-01-11T06:56:16.278Z,100361.59
2023-01-11T06:58:46.756Z,100367.53
2023-01-11T07:01:14.962Z,100377.59
2023-01-11T07:03:42.642Z,100382.50
2023-01-11T07:06:13.926Z,100377.53
2023-01-11T07:08:42.454Z,100377.78
2023-01-11T07:11:10.236Z,100376.59
2023-01-11T07:13:38.104Z,100381.53
2023-01-11T07:16:05.992Z,100393.37
2023-01-11T07:18:33.619Z,100405.78
2023-01-11T07:21:02.427Z,100408.38
2023-01-11T07:23:30.050Z,100412.63
2023-01-11T07:26:00.325Z,100420.53
2023-01-11T07:28:30.555Z,100427.72
2023-01-11T07:30:59.891Z,100419.09
2023-01-11T07:33:28.052Z,100427.19
2023-01-11T07:35:56.241Z,100432.75
2023-01-11T07:38:26.133Z,100432.16
2023-01-11T07:40:56.085Z,100425.59
2023-01-11T07:43:23.744Z,100428.88
2023-01-11T07:45:53.685Z,100429.56
2023-01-11T07:48:26.384Z,100423.41
2023-01-11T07:50:56.496Z,100429.34
2023-01-11T07:53:25.667Z,100419.56
2023-01-11T07:55:53.659Z,100424.69
2023-01-11T07:58:21.298Z,100408.66
2023-01-11T08:00:48.962Z,100405.88
2023-01-11T08:03:16.671Z,100397.97
2023-01-11T08:05:44.383Z,100396.41
2023-01-11T08:08:12.025Z,100406.59
2023-01-11T08:10:41.941Z,100416.28
2023-01-11T08:13:34.842Z,100424.38
2023-01-11T08:16:02.536Z,100422.81
2023-01-11T08:18:30.178Z,100431.06
2023-01-11T08:20:57.799Z,100431.06
2023-01-11T08:23:25.459Z,100433.53
2023-01-11T08:25:58.076Z,100426.94
2023-01-11T08:28:25.817Z,100428.59
2023-01-11T08:30:53.779Z,100431.28
2023-01-11T08:33:21.407Z,100428.53
2023-01-11T08:35:49.109Z,100440.06
2023-01-11T08:38:16.714Z,100442.53
2023-01-11T08:40:44.368Z,100451.16
2023-01-11T08:43:22.070Z,100454.66
2023-01-11T08:45:53.306Z,100467.06
2023-01-11T08:48:20.949Z,100451.34
2023-01-11T08:50:48.700Z,100449.09
2023-01-11T08:53:16.694Z,100437.09
2023-01-11T08:55:44.711Z,100437.28
2023-01-11T08:58:14.388Z,100439.16
2023-01-11T09:00:42.247Z,100448.06
2023-01-11T09:03:11.894Z,100441.56
2023-01-11T09:05:42.963Z,100446.63
2023-01-11T09:08:10.622Z,100446.06
2023-01-11T09:10:38.585Z,100445.59
2023-01-11T09:13:06.178Z,100446.16
2023-01-11T09:15:33.810Z,100447.94
2023-01-11T09:18:03.062Z,100460.63
2023-01-11T09:20:33.422Z,100450.44
2023-01-11T09:23:02.313Z,100446.94
2023-01-11T09:25:29.939Z,100436.63
2023-01-11T09:27:57.658Z,100443.19
2023-01-11T09:30:25.486Z,100452.16
2023-01-11T09:32:54.485Z,100443.59
2023-01-11T09:35:22.697Z,100440.25
2023-01-11T09:37:51.512Z,100445.25
2023-01-11T09:40:46.102Z,100438.88
2023-01-11T09:43:16.790Z,100440.09
2023-01-11T09:45:46.856Z,100437.00
2023-01-11T09:48:46.303Z,100440.72
2023-01-11T09:51:17.197Z,100434.84
2023-01-11T09:53:50.204Z,100440.94
2023-01-11T09:56:25.348Z,100438.59
2023-01-11T09:59:24.310Z,100436.81
2023-01-11T10:02:12.664Z,100430.13
2023-01-11T10:05:18.589Z,100422.31
2023-01-11T10:18:31.138Z,100401.31
2023-01-11T10:18:32.764Z,100405.63
2023-01-11T10:20:43.007Z,100394.09
2023-01-11T10:23:35.521Z,100392.56
2023-01-11T10:26:14.941Z,100384.94
2023-01-11T10:29:07.394Z,100395.72
2023-01-11T10:31:49.407Z,100400.63
2023-01-11T10:34:42.026Z,100400.06
2023-01-11T10:37:36.170Z,100393.13
2023-01-11T10:40:29.470Z,100399.09
2023-01-11T10:43:05.886Z,100394.19
2023-01-11T10:45:52.808Z,100396.59
2023-01-11T10:48:40.138Z,100393.53
2023-01-11T10:51:29.482Z,100397.59
2023-01-11T10:54:14.641Z,100401.19
2023-01-11T10:57:02.808Z,100400.50
2023-01-11T10:59:48.660Z,100404.88
2023-01-11T11:02:28.405Z,100401.88
2023-01-11T11:05:25.576Z,100402.16
2023-01-11T11:08:16.243Z,100400.81
2023-01-11T11:11:00.526Z,100399.66
2023-01-11T11:14:12.894Z,100392.91
2023-01-11T11:16:54.798Z,100386.91
2023-01-11T11:19:26.518Z,100374.31
2023-01-11T11:21:54.246Z,100375.84
2023-01-11T11:24:33.739Z,100367.03
2023-01-11T11:27:14.938Z,100355.13
2023-01-11T11:29:44.879Z,100365.72
2023-01-11T11:32:21.103Z,100363.50
2023-01-11T11:34:50.276Z,100361.25
2023-01-11T11:37:34.635Z,100364.78
2023-01-11T11:40:05.757Z,100365.03
2023-01-11T11:42:33.785Z,100357.12
2023-01-11T11:45:10.689Z,100356.88
2023-01-11T11:47:39.557Z,100358.97
2023-01-11T11:50:43.100Z,100361.88
2023-01-11T11:53:53.420Z,100358.47
2023-01-11T11:56:31.153Z,100362.50
2023-01-11T11:59:00.508Z,100357.44
2023-01-11T12:01:34.822Z,100358.03
2023-01-11T12:04:19.171Z,100363.06
2023-01-11T12:06:53.636Z,100355.28
2023-01-11T12:09:32.248Z,100360.41
2023-01-11T12:12:01.142Z,100370.00
2023-01-11T12:14:31.938Z,100369.81
2023-01-11T12:17:00.457Z,100355.59
2023-01-11T12:19:32.383Z,100354.59
2023-01-11T12:22:20.016Z,100363.13
2023-01-11T12:24:49.575Z,100366.28
2023-01-11T12:27:46.387Z,100369.69
2023-01-11T12:30:32.025Z,100366.31
2023-01-11T12:33:25.668Z,100371.91
2023-01-11T12:36:15.299Z,100376.91
2023-01-11T12:38:48.677Z,100373.91
2023-01-11T12:41:50.306Z,100374.81
2023-01-11T12:44:25.357Z,100373.59
2023-01-11T12:47:01.892Z,100375.81
2023-01-11T12:49:38.547Z,100375.25
2023-01-11T12:52:27.725Z,100377.16
2023-01-11T12:55:04.731Z,100379.53
2023-01-11T12:57:59.854Z,100376.88
2023-01-11T13:00:33.124Z,100375.72
2023-01-11T13:03:34.803Z,100372.31
2023-01-11T13:06:21.233Z,100362.28
2023-01-11T13:08:54.262Z,100358.22
2023-01-11T13:11:37.044Z,100373.22
2023-01-11T13:14:39.300Z,100368.69
2023-01-11T13:17:34.391Z,100363.31
2023-01-11T13:20:20.565Z,100363.06
2023-01-11T13:22:53.671Z,100365.34
2023-01-11T13:25:23.911Z,100364.59
2023-01-11T13:27:59.337Z,100367.78
2023-01-11T13:30:27.687Z,100370.09
2023-01-11T13:33:01.671Z,100373.38
2023-01-11T13:35:42.181Z,100380.75
2023-01-11T13:38:34.786Z,100372.06
2023-01-11T13:41:13.602Z,100382.19
2023-01-11T13:43:51.859Z,100375.47
2023-01-11T13:46:47.800Z,100385.25
2023-01-11T13:49:19.443Z,100389.97
2023-01-11T13:52:12.071Z,100379.50
2023-01-11T13:54:43.831Z,100375.41
2023-01-11T13:57:25.487Z,100379.31
2023-01-11T14:00:02.627Z,100379.75
2023-01-11T14:03:01.571Z,100378.34
2023-01-11T14:05:34.008Z,100387.28
2023-01-11T14:08:07.558Z,100395.12
2023-01-11T14:10:45.175Z,100388.69
2023-01-11T14:13:57.917Z,100381.69
2023-01-11T14:16:25.531Z,100380.84
2023-01-11T14:19:11.789Z,100382.25
2023-01-11T14:21:57.291Z,100385.34
2023-01-11T14:24:29.025Z,100381.59
2023-01-11T14:27:18.313Z,100378.47
2023-01-11T14:30:04.598Z,100378.22
2023-01-11T14:32:55.490Z,100372.13
2023-01-11T14:35:25.915Z,100374.12
2023-01-11T14:38:30.806Z,100368.00
2023-01-11T14:41:04.530Z,100378.12
2023-01-11T14:44:15.071Z,100375.87
2023-01-11T14:46:45.521Z,100379.31
2023-01-11T14:49:43.008Z,100379.19
2023-01-11T14:52:15.868Z,100380.09
2023-01-11T14:54:46.406Z,100378.94
2023-01-11T14:57:56.098Z,100361.16
2023-01-11T15:00:23.682Z,100361.63
2023-01-11T15:03:01.090Z,100362.50
2023-01-11T15:05:31.665Z,100371.72
2023-01-11T15:08:23.362Z,100363.84
2023-01-11T15:11:30.549Z,100366.00
2023-01-11T15:14:02.857Z,100363.09
2023-01-11T15:16:52.498Z,100362.94
2023-01-11T15:19:34.390Z,100329.22
2023-01-11T15:22:07.754Z,100361.94
2023-01-11T15:24:57.684Z,100360.28
2023-01-11T15:27:28.538Z,100355.94
2023-01-11T15:29:58.342Z,100372.69
2023-01-11T15:32:30.142Z,100378.88
2023-01-11T15:35:28.681Z,100366.28
2023-01-11T15:37:59.268Z,100379.69
2023-01-11T15:40:32.467Z,100379.69
2023-01-11T15:43:13.410Z,100375.75
2023-01-11T15:46:13.982Z,100373.81
2023-01-11T15:49:05.807Z,100382.84
2023-01-11T15:51:33.434Z,100368.34
2023-01-11T15:54:38.656Z,100373.69
2023-01-11T15:57:43.923Z,100367.41
2023-01-11T16:00:44.082Z,100371.94
2023-01-11T16:03:50.050Z,100378.47
2023-01-11T16:06:40.880Z,100383.37
2023-01-11T16:09:26.964Z,100382.44
2023-01-11T16:12:12.298Z,100380.50
2023-01-11T16:15:10.943Z,100377.69
2023-01-11T16:17:42.080Z,100378.88
2023-01-11T16:20:21.931Z,100375.53
2023-01-11T16:23:02.524Z,100372.13
2023-01-11T16:25:33.491Z,100363.19
2023-01-11T16:28:02.110Z,100365.63
2023-01-11T16:30:30.408Z,100365.38
2023-01-11T16:33:24.755Z,100360.41
2023-01-11T16:36:04.811Z,100359.50
2023-01-11T16:38:44.092Z,100366.25
2023-01-11T16:41:15.045Z,100369.53
2023-01-11T16:44:01.603Z,100373.41
2023-01-11T16:46:47.388Z,100374.81
2023-01-11T16:49:19.043Z,100369.47
2023-01-11T16:51:49.178Z,100372.53
2023-01-11T16:54:29.966Z,100375.59
2023-01-11T16:56:59.164Z,100374.28
2023-01-11T16:59:31.681Z,100376.31
2023-01-11T17:02:03.588Z,100376.06
2023-01-11T17:04:35.756Z,100373.75
2023-01-11T17:07:16.057Z,100373.31
2023-01-11T17:09:45.788Z,100374.16
2023-01-11T17:12:27.440Z,100373.50
2023-01-11T17:15:24.792Z,100381.72
2023-01-11T17:17:52.619Z,100349.81
2023-01-11T17:20:23.254Z,100372.59
2023-01-11T17:22:53.872Z,100373.16
2023-01-11T17:25:29.480Z,100372.50
2023-01-11T17:28:17.180Z,100373.25
2023-01-11T17:30:52.427Z,100371.59
2023-01-11T17:33:33.961Z,100380.00
2023-01-11T17:36:02.923Z,100369.03
2023-01-11T17:38:32.486Z,100381.59
2023-01-11T17:41:24.122Z,100375.59
2023-01-11T17:44:11.760Z,100377.97
2023-01-11T17:46:42.128Z,100376.31
2023-01-11T17:49:22.180Z,100388.88
2023-01-11T17:51:53.021Z,100386.37
2023-01-11T17:54:28.806Z,100387.78
2023-01-11T17:57:00.318Z,100396.25
2023-01-11T17:59:30.072Z,100397.66
2023-01-11T18:02:15.763Z,100389.81
2023-01-11T18:04:44.026Z,100400.25
2023-01-11T18:07:20.913Z,100390.28
2023-01-11T18:09:50.888Z,100399.13
2023-01-11T18:12:29.037Z,100395.97
2023-01-11T18:15:05.619Z,100405.38
2023-01-11T18:17:33.181Z,100402.72
2023-01-11T18:20:02.912Z,100409.63
2023-01-11T18:22:33.250Z,100405.47
2023-01-11T18:25:24.940Z,100408.16
2023-01-11T18:27:53.106Z,100413.03
2023-01-11T18:30:32.807Z,100409.25
2023-01-11T18:33:03.689Z,100410.16
2023-01-11T18:35:32.111Z,100414.38
2023-01-11T18:37:59.759Z,100424.91
2023-01-11T18:40:27.427Z,100418.25
2023-01-11T18:42:55.244Z,100413.47
2023-01-11T18:45:24.901Z,100414.38
2023-01-11T18:47:54.769Z,100417.22
2023-01-11T18:50:23.931Z,100420.56
2023-01-11T18:52:51.565Z,100427.56
2023-01-11T18:55:21.453Z,100439.78
2023-01-11T18:57:49.310Z,100439.97
2023-01-11T19:00:18.600Z,100439.66
2023-01-11T19:02:46.631Z,100436.53
2023-01-11T19:05:16.154Z,100429.06
2023-01-11T19:07:46.383Z,100428.41
2023-01-11T19:10:20.100Z,100425.09
2023-01-11T19:12:48.347Z,100435.12
2023-01-11T19:15:19.182Z,100440.13
2023-01-11T19:17:46.811Z,100424.19
2023-01-11T19:20:15.503Z,100429.87
2023-01-11T19:22:45.266Z,100432.19
2023-01-11T19:25:13.740Z,100427.69
2023-01-11T19:27:41.403Z,100429.53
2023-01-11T19:30:09.727Z,100433.84
2023-01-11T19:32:37.420Z,100443.16
2023-01-11T19:35:08.458Z,100453.84
2023-01-11T19:37:38.610Z,100462.41
2023-01-11T19:40:10.188Z,100456.06
2023-01-11T19:42:40.184Z,100466.44
2023-01-11T19:45:12.689Z,100454.47
2023-01-11T19:47:40.752Z,100460.44
2023-01-11T19:50:09.494Z,100460.44
2023-01-11T19:52:37.076Z,100465.31
2023-01-11T19:55:04.851Z,100462.00
2023-01-11T19:57:35.162Z,100470.66
2023-01-11T20:00:04.006Z,100463.19
2023-01-11T20:02:32.822Z,100464.50
2023-01-11T20:05:02.829Z,100467.50
2023-01-11T20:07:31.281Z,100469.19
2023-01-11T20:10:02.094Z,100460.06
2023-01-11T20:12:29.718Z,100464.91
2023-01-11T20:15:01.229Z,100457.44
2023-01-11T20:17:29.427Z,100457.78
2023-01-11T20:19:57.111Z,100456.47
2023-01-11T20:22:25.427Z,100451.16
2023-01-11T20:24:56.020Z,100454.50
2023-01-11T20:27:23.672Z,100468.84
2023-01-11T20:29:51.544Z,100469.38
2023-01-11T20:32:40.995Z,100472.38
2023-01-11T20:35:10.037Z,100469.88
2023-01-11T20:37:37.744Z,100464.91
2023-01-11T20:40:05.836Z,100468.09
2023-01-11T20:42:36.720Z,100472.59
2023-01-11T20:45:04.573Z,100461.09
2023-01-11T20:47:32.157Z,100461.28
2023-01-11T20:49:59.739Z,100463.13
2023-01-11T20:52:27.347Z,100472.81
2023-01-11T20:54:54.947Z,100483.31
2023-01-11T20:57:22.693Z,100475.00
2023-01-11T20:59:50.402Z,100477.00
2023-01-11T21:02:18.248Z,100477.66
2023-01-11T21:04:45.862Z,100482.34
2023-01-11T21:07:15.663Z,100491.53
2023-01-11T21:09:43.276Z,100492.69
2023-01-11T21:12:10.886Z,100492.84
2023-01-11T21:14:38.570Z,100493.00
2023-01-11T21:17:10.614Z,100493.19
2023-01-11T21:19:38.224Z,100499.53
2023-01-11T21:22:06.031Z,100496.69
2023-01-11T21:24:33.664Z,100495.34
2023-01-11T21:27:02.970Z,100499.53
2023-01-11T21:29:30.679Z,100504.03
2023-01-11T21:31:58.383Z,100501.03
2023-01-11T21:34:30.779Z,100504.03
2023-01-11T21:36:58.387Z,100508.72
2023-01-11T21:39:26.679Z,100510.38
2023-01-11T21:41:58.981Z,100514.06
2023-01-11T21:44:33.372Z,100501.53
2023-01-11T21:47:06.390Z,100509.38
2023-01-11T21:49:37.682Z,100513.19
2023-01-11T21:52:06.295Z,100512.03
2023-01-11T21:54:34.057Z,100512.69
2023-01-11T21:57:03.851Z,100508.34
2023-01-11T21:59:33.644Z,100512.03
2023-01-11T22:02:03.411Z,100517.72
2023-01-11T22:04:31.048Z,100512.38
2023-01-11T22:07:00.042Z,100514.03
2023-01-11T22:09:28.159Z,100517.72
2023-01-11T22:11:56.434Z,100524.72
2023-01-11T22:14:24.102Z,100520.22
2023-01-11T22:16:54.597Z,100516.69
2023-01-11T22:19:22.176Z,100514.00
2023-01-11T22:21:49.819Z,100517.69
2023-01-11T22:24:20.751Z,100517.84
2023-01-11T22:26:48.346Z,100508.00
2023-01-11T22:29:16.094Z,100515.88
2023-01-11T22:31:54.901Z,100523.88
2023-01-11T22:34:23.902Z,100518.37
2023-01-11T22:36:52.527Z,100518.87
2023-01-11T22:39:20.360Z,100521.53
2023-01-11T22:41:51.279Z,100517.38
2023-01-11T22:44:21.101Z,100523.06
2023-01-11T22:46:49.185Z,100521.38
2023-01-11T22:49:17.413Z,100522.56
2023-01-11T22:51:47.520Z,100528.72
2023-01-11T22:54:15.577Z,100529.38
2023-01-11T22:56:43.236Z,100529.56
2023-01-11T22:59:11.506Z,100529.22
2023-01-11T23:01:41.698Z,100538.37
2023-01-11T23:04:13.861Z,100538.53
2023-01-11T23:06:43.106Z,100542.56
2023-01-11T23:09:16.282Z,100548.06
2023-01-11T23:12:01.724Z,100535.72
2023-01-11T23:14:33.755Z,100528.06
2023-01-11T23:17:05.267Z,100528.06
2023-01-11T23:19:36.350Z,100538.06
2023-01-11T23:22:05.088Z,100531.38
2023-01-11T23:24:37.183Z,100527.03
2023-01-11T23:27:07.303Z,100529.72
2023-01-11T23:29:35.519Z,100529.41
2023-01-11T23:32:04.257Z,100516.22
2023-01-11T23:34:31.867Z,100509.03
2023-01-11T23:36:59.480Z,100509.22
2023-01-11T23:39:27.080Z,100513.72
2023-01-11T23:42:12.224Z,100511.06
2023-01-11T23:44:40.077Z,100520.38
2023-01-11T23:47:21.569Z,100533.88
2023-01-11T23:49:50.771Z,100537.69
2023-01-11T23:52:20.408Z,100536.03
2023-01-11T23:54:50.561Z,100530.69
2023-01-11T23:57:19.347Z,100535.37
2023-01-11T23:59:47.157Z,100532.56
